Time;durP1;ratioP1;P1;durP2;ratioP2;P2;SDS_P1;SDS_P2;PMS_P1;PMS_P2;Temp;Humidity;BMP_temperature;BMP_pressure;BME280_temperature;BME280_humidity;BME280_pressure;Samples;Min_cycle;Max_cycle;Signal;HPM_P1;HPM_P2
2021/12/12 00:01:05;;;;;;;;;;;19.00;42.40;;;;;;5092643;28;19927;-62
2021/12/12 00:03:38;;;;;;;;;;;19.00;42.40;;;;;;5091928;28;19973;-62
2021/12/12 00:06:08;;;;;;;;;;;19.00;42.50;;;;;;5082397;28;20391;-62
2021/12/12 00:08:34;;;;;;;;;;;19.00;42.30;;;;;;5091875;28;19952;-62
2021/12/12 00:11:01;;;;;;;;;;;18.90;42.40;;;;;;5089415;28;19966;-62
2021/12/12 00:13:27;;;;;;;;;;;18.90;42.40;;;;;;5095941;28;19967;-62
2021/12/12 00:15:53;;;;;;;;;;;19.00;42.40;;;;;;5093136;28;19912;-62
2021/12/12 00:18:18;;;;;;;;;;;19.00;42.30;;;;;;5091142;28;19912;-62
2021/12/12 00:20:44;;;;;;;;;;;18.90;42.30;;;;;;5081550;28;19908;-62
2021/12/12 00:23:09;;;;;;;;;;;19.00;42.40;;;;;;5090927;28;19908;-62
2021/12/12 00:25:38;;;;;;;;;;;19.00;42.30;;;;;;5086358;28;20003;-62
2021/12/12 00:28:03;;;;;;;;;;;18.90;42.30;;;;;;5066360;28;19919;-63
2021/12/12 00:30:29;;;;;;;;;;;18.90;42.20;;;;;;5072260;28;20353;-62
2021/12/12 00:32:54;;;;;;;;;;;18.90;42.30;;;;;;5086790;28;19913;-62
2021/12/12 00:35:20;;;;;;;;;;;18.90;42.20;;;;;;5078470;28;19912;-62
2021/12/12 00:37:46;;;;;;;;;;;18.90;42.30;;;;;;5076486;28;20448;-62
2021/12/12 00:40:16;;;;;;;;;;;18.90;42.30;;;;;;5093534;28;20356;-62
2021/12/12 00:42:41;;;;;;;;;;;18.80;42.30;;;;;;5083990;28;19921;-62
2021/12/12 00:45:10;;;;;;;;;;;18.80;42.20;;;;;;5083789;28;19919;-62
2021/12/12 00:47:36;;;;;;;;;;;18.80;42.30;;;;;;5075872;28;19951;-62
2021/12/12 00:50:03;;;;;;;;;;;18.80;42.30;;;;;;5087086;28;19991;-62
2021/12/12 00:52:28;;;;;;;;;;;18.80;42.30;;;;;;5089705;28;20378;-62
2021/12/12 00:54:54;;;;;;;;;;;18.80;42.20;;;;;;5069796;28;19909;-62
2021/12/12 00:57:19;;;;;;;;;;;18.80;42.20;;;;;;5079738;28;19915;-62
2021/12/12 00:59:47;;;;;;;;;;;18.80;42.20;;;;;;5091533;28;20128;-62
2021/12/12 01:02:13;;;;;;;;;;;18.80;42.20;;;;;;5091683;28;19909;-62
2021/12/12 01:04:41;;;;;;;;;;;18.80;42.20;;;;;;5089546;28;20478;-62
2021/12/12 01:07:08;;;;;;;;;;;18.80;42.20;;;;;;5091661;28;19909;-62
2021/12/12 01:09:34;;;;;;;;;;;18.80;42.20;;;;;;5079544;28;19912;-62
2021/12/12 01:12:02;;;;;;;;;;;18.70;42.10;;;;;;5084005;28;19908;-62
2021/12/12 01:14:30;;;;;;;;;;;18.70;42.10;;;;;;5088355;28;19947;-62
2021/12/12 01:16:58;;;;;;;;;;;18.70;42.10;;;;;;5090225;28;19939;-62
2021/12/12 01:19:31;;;;;;;;;;;18.70;42.10;;;;;;5090671;28;19951;-62
2021/12/12 01:21:58;;;;;;;;;;;18.70;42.20;;;;;;5085700;28;20371;-62
2021/12/12 01:24:28;;;;;;;;;;;18.70;42.10;;;;;;5092344;28;20376;-63
2021/12/12 01:26:54;;;;;;;;;;;18.70;42.10;;;;;;5095553;28;19952;-62
2021/12/12 01:29:20;;;;;;;;;;;18.70;42.20;;;;;;5095741;28;19962;-62
2021/12/12 01:31:49;;;;;;;;;;;18.70;42.10;;;;;;5095599;28;19924;-62
2021/12/12 01:34:16;;;;;;;;;;;18.70;42.20;;;;;;5093213;28;19908;-62
2021/12/12 01:36:52;;;;;;;;;;;18.60;42.20;;;;;;5094343;28;19923;-62
2021/12/12 01:39:18;;;;;;;;;;;18.60;42.10;;;;;;5078452;28;19930;-62
2021/12/12 01:41:55;;;;;;;;;;;18.60;42.10;;;;;;5086088;28;19908;-62
2021/12/12 01:44:28;;;;;;;;;;;18.60;42.20;;;;;;5091720;28;19915;-62
2021/12/12 01:46:59;;;;;;;;;;;18.60;42.10;;;;;;5099947;28;19908;-62
2021/12/12 01:49:25;;;;;;;;;;;18.70;42.20;;;;;;5078338;28;19920;-62
2021/12/12 01:51:51;;;;;;;;;;;18.60;42.00;;;;;;5070894;28;20368;-62
2021/12/12 01:54:18;;;;;;;;;;;18.60;42.00;;;;;;5092575;28;19916;-62
2021/12/12 01:56:49;;;;;;;;;;;18.60;42.10;;;;;;5093373;28;19920;-63
2021/12/12 01:59:15;;;;;;;;;;;18.60;42.00;;;;;;5097866;28;19930;-62
2021/12/12 02:01:42;;;;;;;;;;;18.60;42.20;;;;;;5074339;28;19909;-62
2021/12/12 02:04:12;;;;;;;;;;;18.60;42.10;;;;;;5085340;28;19935;-62
2021/12/12 02:06:38;;;;;;;;;;;18.60;42.10;;;;;;5085063;28;20387;-62
2021/12/12 02:09:04;;;;;;;;;;;18.50;41.90;;;;;;5090457;28;19912;-62
2021/12/12 02:11:30;;;;;;;;;;;18.50;42.00;;;;;;5079505;28;19916;-63
2021/12/12 02:13:57;;;;;;;;;;;18.50;42.00;;;;;;5090163;28;19935;-62
2021/12/12 02:16:22;;;;;;;;;;;18.50;41.80;;;;;;5092215;28;19908;-62
2021/12/12 02:18:51;;;;;;;;;;;18.50;42.00;;;;;;5093354;28;19935;-62
2021/12/12 02:21:23;;;;;;;;;;;18.50;41.90;;;;;;5093472;28;19959;-62
2021/12/12 02:24:20;;;;;;;;;;;18.50;41.90;;;;;;5093420;28;19943;-62
2021/12/12 02:35:23;;;;;;;;;;;18.70;41.60;;;;;;5092786;28;19919;-62
2021/12/12 02:37:49;;;;;;;;;;;18.90;41.40;;;;;;5082903;28;19934;-62
2021/12/12 02:40:16;;;;;;;;;;;19.00;41.10;;;;;;5090679;28;19912;-62
2021/12/12 02:42:41;;;;;;;;;;;19.20;40.80;;;;;;5093678;28;19918;-62
2021/12/12 02:45:08;;;;;;;;;;;19.40;40.70;;;;;;5100079;28;19908;-62
2021/12/12 02:47:34;;;;;;;;;;;19.50;40.30;;;;;;5093964;28;20261;-62
2021/12/12 02:50:11;;;;;;;;;;;19.60;40.00;;;;;;5092037;28;19919;-62
2021/12/12 02:52:36;;;;;;;;;;;19.80;39.80;;;;;;5092960;28;19919;-62
2021/12/12 02:55:08;;;;;;;;;;;19.90;39.50;;;;;;5092363;28;19912;-62
2021/12/12 02:57:33;;;;;;;;;;;20.00;39.30;;;;;;5092620;28;19912;-62
2021/12/12 02:59:59;;;;;;;;;;;20.10;39.10;;;;;;5092393;28;20277;-62
2021/12/12 03:02:27;;;;;;;;;;;20.10;39.10;;;;;;5092791;28;19915;-62
2021/12/12 03:04:52;;;;;;;;;;;20.20;39.00;;;;;;5096732;28;20011;-62
2021/12/12 03:07:18;;;;;;;;;;;20.20;38.80;;;;;;5095117;28;19951;-62
2021/12/12 03:09:44;;;;;;;;;;;20.30;39.40;;;;;;5072878;28;20007;-63
2021/12/12 03:12:11;;;;;;;;;;;20.20;38.70;;;;;;5088897;28;20328;-62
2021/12/12 03:14:37;;;;;;;;;;;20.20;38.80;;;;;;5077446;28;19917;-62
2021/12/12 03:17:04;;;;;;;;;;;20.10;38.80;;;;;;5080641;28;19927;-62
2021/12/12 03:19:29;;;;;;;;;;;20.10;39.00;;;;;;5085349;28;19917;-62
2021/12/12 03:21:55;;;;;;;;;;;20.10;39.10;;;;;;5076106;28;19962;-63
2021/12/12 03:24:22;;;;;;;;;;;20.00;39.10;;;;;;5091830;28;19908;-62
2021/12/12 03:26:48;;;;;;;;;;;20.00;39.30;;;;;;5091251;28;19916;-62
2021/12/12 03:29:13;;;;;;;;;;;19.90;39.30;;;;;;5088500;28;19997;-62
2021/12/12 03:31:40;;;;;;;;;;;19.90;39.40;;;;;;5085422;28;19913;-62
2021/12/12 03:34:06;;;;;;;;;;;19.80;39.50;;;;;;5088073;28;20375;-62
2021/12/12 03:36:32;;;;;;;;;;;19.80;39.60;;;;;;5067701;28;19912;-62
2021/12/12 03:38:59;;;;;;;;;;;19.80;39.70;;;;;;5093103;28;19908;-62
2021/12/12 03:41:26;;;;;;;;;;;19.70;39.70;;;;;;5093208;28;19980;-62
2021/12/12 03:43:52;;;;;;;;;;;19.70;39.80;;;;;;5095965;28;19908;-62
2021/12/12 03:46:17;;;;;;;;;;;19.70;39.80;;;;;;5082322;28;19912;-62
2021/12/12 03:48:43;;;;;;;;;;;19.60;39.90;;;;;;5067069;28;20380;-62
2021/12/12 03:51:08;;;;;;;;;;;19.60;39.90;;;;;;5079590;28;19908;-62
2021/12/12 03:53:35;;;;;;;;;;;19.60;40.00;;;;;;5090669;28;20486;-63
2021/12/12 03:56:00;;;;;;;;;;;19.60;40.00;;;;;;5091473;28;20417;-62
2021/12/12 03:58:25;;;;;;;;;;;19.60;40.00;;;;;;5092575;28;19924;-62
2021/12/12 04:00:54;;;;;;;;;;;19.60;40.00;;;;;;5092620;28;20082;-62
2021/12/12 04:03:19;;;;;;;;;;;19.60;40.00;;;;;;5090470;28;20288;-62
2021/12/12 04:05:49;;;;;;;;;;;19.60;40.10;;;;;;5092504;28;19908;-62
2021/12/12 04:08:14;;;;;;;;;;;19.60;40.10;;;;;;5092425;28;19954;-62
2021/12/12 04:10:40;;;;;;;;;;;19.60;40.10;;;;;;5091440;28;19919;-62
2021/12/12 04:13:05;;;;;;;;;;;19.60;40.10;;;;;;5078470;28;19963;-62
2021/12/12 04:15:31;;;;;;;;;;;19.60;40.00;;;;;;5088135;28;19909;-62
2021/12/12 04:17:56;;;;;;;;;;;19.60;40.00;;;;;;5092406;28;19938;-62
2021/12/12 04:20:23;;;;;;;;;;;19.60;40.00;;;;;;5091300;28;19915;-62
2021/12/12 04:22:49;;;;;;;;;;;19.70;40.00;;;;;;5094090;28;20333;-62
2021/12/12 04:25:15;;;;;;;;;;;19.70;40.00;;;;;;5077081;28;19912;-62
2021/12/12 04:27:40;;;;;;;;;;;19.70;39.90;;;;;;5083266;28;20398;-62
2021/12/12 04:30:06;;;;;;;;;;;19.70;39.80;;;;;;5069643;28;20283;-62
2021/12/12 04:32:32;;;;;;;;;;;19.70;39.90;;;;;;5092034;28;19915;-62
2021/12/12 04:34:58;;;;;;;;;;;19.60;39.80;;;;;;5089977;28;19916;-62
2021/12/12 04:37:24;;;;;;;;;;;19.60;39.90;;;;;;5082281;28;20011;-62
2021/12/12 04:39:52;;;;;;;;;;;19.60;40.10;;;;;;5082866;28;19912;-63
2021/12/12 04:42:20;;;;;;;;;;;19.50;40.10;;;;;;5068918;28;19951;-62
2021/12/12 04:44:46;;;;;;;;;;;19.50;40.10;;;;;;5075783;28;19908;-62
2021/12/12 04:50:19;;;;;;;;;;;19.50;40.10;;;;;;5093952;28;20280;-62
2021/12/12 04:52:44;;;;;;;;;;;19.60;40.20;;;;;;5080944;28;20061;-62
2021/12/12 04:55:12;;;;;;;;;;;19.60;40.00;;;;;;5091651;28;20049;-62
2021/12/12 04:57:51;;;;;;;;;;;19.60;40.00;;;;;;5091639;28;19912;-62
2021/12/12 05:00:18;;;;;;;;;;;19.70;40.00;;;;;;5087688;28;19974;-62
2021/12/12 05:02:47;;;;;;;;;;;19.70;39.90;;;;;;5070092;28;19908;-62
2021/12/12 05:05:17;;;;;;;;;;;19.80;39.90;;;;;;5079204;28;20368;-62
2021/12/12 05:07:52;;;;;;;;;;;19.80;39.80;;;;;;5090441;28;19982;-62
2021/12/12 05:10:21;;;;;;;;;;;19.80;39.70;;;;;;5075749;28;20388;-62
2021/12/12 05:12:48;;;;;;;;;;;19.80;39.70;;;;;;5088720;28;19931;-62
2021/12/12 05:15:16;;;;;;;;;;;19.80;39.60;;;;;;5083854;28;19977;-62
2021/12/12 05:17:48;;;;;;;;;;;19.80;39.60;;;;;;5082653;28;19920;-62
2021/12/12 05:20:17;;;;;;;;;;;19.80;39.60;;;;;;5086246;28;19909;-62
2021/12/12 05:22:44;;;;;;;;;;;19.80;39.60;;;;;;5091669;28;20560;-62
2021/12/12 05:25:10;;;;;;;;;;;19.80;39.60;;;;;;5090241;28;19912;-63
2021/12/12 05:27:36;;;;;;;;;;;19.80;39.60;;;;;;5090658;28;20364;-62
2021/12/12 05:30:04;;;;;;;;;;;19.80;39.70;;;;;;5069702;28;19966;-62
2021/12/12 05:32:30;;;;;;;;;;;19.80;39.70;;;;;;5103006;28;19920;-63
2021/12/12 05:34:55;;;;;;;;;;;19.80;39.80;;;;;;5103856;28;19912;-62
2021/12/12 05:37:21;;;;;;;;;;;19.70;39.80;;;;;;5082104;28;20380;-62
2021/12/12 05:39:46;;;;;;;;;;;19.70;39.90;;;;;;5079733;28;20368;-62
2021/12/12 05:42:12;;;;;;;;;;;19.70;39.90;;;;;;5085645;28;19915;-62
2021/12/12 05:44:37;;;;;;;;;;;19.60;39.90;;;;;;5072867;28;19918;-62
2021/12/12 05:47:05;;;;;;;;;;;19.60;40.00;;;;;;5088187;28;20003;-62
2021/12/12 05:49:32;;;;;;;;;;;19.60;40.00;;;;;;5083461;28;19916;-62
2021/12/12 05:51:58;;;;;;;;;;;19.60;40.10;;;;;;5081449;28;19912;-62
2021/12/12 05:54:24;;;;;;;;;;;19.60;40.20;;;;;;5087810;28;19909;-63
2021/12/12 05:56:50;;;;;;;;;;;19.60;40.20;;;;;;5082051;28;19970;-62
2021/12/12 05:59:15;;;;;;;;;;;19.60;40.20;;;;;;5084652;28;19909;-62
2021/12/12 06:01:40;;;;;;;;;;;19.60;40.20;;;;;;5091260;28;19909;-62
2021/12/12 06:04:06;;;;;;;;;;;19.60;40.20;;;;;;5088948;28;20407;-62
2021/12/12 06:06:33;;;;;;;;;;;19.50;40.10;;;;;;5089623;28;19908;-62
2021/12/12 06:09:00;;;;;;;;;;;19.50;40.10;;;;;;5082577;28;20459;-62
2021/12/12 06:11:26;;;;;;;;;;;19.50;40.20;;;;;;5091533;28;20325;-62
2021/12/12 06:13:51;;;;;;;;;;;19.50;40.20;;;;;;5094405;28;20007;-62
2021/12/12 06:16:19;;;;;;;;;;;19.50;40.10;;;;;;5093561;28;19944;-62
2021/12/12 06:18:48;;;;;;;;;;;19.50;40.20;;;;;;5092391;28;19978;-62
2021/12/12 06:21:14;;;;;;;;;;;19.50;40.10;;;;;;5094816;28;19914;-61
2021/12/12 06:23:39;;;;;;;;;;;19.50;40.10;;;;;;5076724;28;19912;-62
2021/12/12 06:26:05;;;;;;;;;;;19.50;40.10;;;;;;5092367;28;19908;-62
2021/12/12 06:28:33;;;;;;;;;;;19.60;40.20;;;;;;5094241;28;19916;-62
2021/12/12 06:30:59;;;;;;;;;;;19.60;40.20;;;;;;5093443;28;19957;-62
2021/12/12 06:33:25;;;;;;;;;;;19.60;40.10;;;;;;5093637;28;19924;-62
2021/12/12 06:35:50;;;;;;;;;;;19.60;40.00;;;;;;5092393;28;19918;-62
2021/12/12 06:38:16;;;;;;;;;;;19.60;40.00;;;;;;5075942;28;19917;-62
2021/12/12 06:40:41;;;;;;;;;;;19.60;39.90;;;;;;5101750;28;19912;-63
2021/12/12 06:43:08;;;;;;;;;;;19.60;39.90;;;;;;5101070;28;20045;-62
2021/12/12 06:45:33;;;;;;;;;;;19.60;39.90;;;;;;5092779;28;19908;-62
2021/12/12 06:47:59;;;;;;;;;;;19.60;39.90;;;;;;5072758;28;19915;-62
2021/12/12 06:50:24;;;;;;;;;;;19.60;39.70;;;;;;5090332;28;19947;-62
2021/12/12 06:52:50;;;;;;;;;;;19.70;39.80;;;;;;5092996;28;19908;-62
2021/12/12 06:55:15;;;;;;;;;;;19.70;39.70;;;;;;5092241;28;20002;-62
2021/12/12 06:57:41;;;;;;;;;;;19.70;39.70;;;;;;5075634;28;19916;-62
2021/12/12 07:00:11;;;;;;;;;;;19.70;39.70;;;;;;5088307;28;19919;-62
2021/12/12 07:02:36;;;;;;;;;;;19.70;39.60;;;;;;5077575;28;19950;-62
2021/12/12 07:05:02;;;;;;;;;;;19.70;39.60;;;;;;5082899;28;19927;-62
2021/12/12 07:07:28;;;;;;;;;;;19.70;39.60;;;;;;5087321;28;19947;-62
2021/12/12 07:09:53;;;;;;;;;;;19.70;39.60;;;;;;5082455;28;19915;-62
2021/12/12 07:12:22;;;;;;;;;;;19.70;39.60;;;;;;5093444;28;19958;-62
2021/12/12 07:14:48;;;;;;;;;;;19.70;39.60;;;;;;5087430;28;19912;-62
2021/12/12 07:17:14;;;;;;;;;;;19.70;39.60;;;;;;5092685;28;19954;-62
2021/12/12 07:19:40;;;;;;;;;;;19.70;39.50;;;;;;5091611;28;19987;-63
2021/12/12 07:22:06;;;;;;;;;;;19.70;39.50;;;;;;5089275;28;19909;-62
2021/12/12 07:24:31;;;;;;;;;;;19.70;39.50;;;;;;5073730;28;19908;-62
2021/12/12 07:26:58;;;;;;;;;;;19.60;39.40;;;;;;5092095;28;20355;-62
2021/12/12 07:29:24;;;;;;;;;;;19.70;39.60;;;;;;5093157;28;19915;-62
2021/12/12 07:31:49;;;;;;;;;;;19.60;39.40;;;;;;5093384;28;19912;-62
2021/12/12 07:34:15;;;;;;;;;;;19.60;39.40;;;;;;5090062;28;19933;-62
2021/12/12 07:36:42;;;;;;;;;;;19.70;39.40;;;;;;5091829;28;19912;-62
2021/12/12 07:39:09;;;;;;;;;;;19.60;39.40;;;;;;5088093;28;19998;-62
2021/12/12 07:41:34;;;;;;;;;;;19.70;39.40;;;;;;5073396;28;20519;-62
2021/12/12 07:44:00;;;;;;;;;;;19.60;39.40;;;;;;5069796;28;20034;-62
2021/12/12 07:46:25;;;;;;;;;;;19.70;39.50;;;;;;5089856;28;19976;-62
2021/12/12 07:48:51;;;;;;;;;;;19.70;39.50;;;;;;5099089;28;19909;-62
2021/12/12 07:51:17;;;;;;;;;;;19.60;39.40;;;;;;5102000;28;19920;-62
2021/12/12 07:53:42;;;;;;;;;;;19.60;39.40;;;;;;5091382;28;19915;-62
2021/12/12 07:56:07;;;;;;;;;;;19.70;39.50;;;;;;5091396;28;19907;-62
2021/12/12 07:58:33;;;;;;;;;;;19.70;39.60;;;;;;5088056;28;20364;-62
2021/12/12 08:00:59;;;;;;;;;;;19.70;39.50;;;;;;5068743;28;19958;-62
2021/12/12 08:03:26;;;;;;;;;;;19.70;39.40;;;;;;5081837;28;19916;-62
2021/12/12 08:05:51;;;;;;;;;;;19.70;39.50;;;;;;5089187;28;19916;-62
2021/12/12 08:08:16;;;;;;;;;;;19.70;39.50;;;;;;5080858;28;19957;-62
2021/12/12 08:10:43;;;;;;;;;;;19.70;39.50;;;;;;5089485;28;19908;-62
2021/12/12 08:13:08;;;;;;;;;;;19.70;39.50;;;;;;5084116;28;19970;-62
2021/12/12 08:15:34;;;;;;;;;;;19.70;39.40;;;;;;5072935;28;19944;-62
2021/12/12 08:17:59;;;;;;;;;;;19.70;39.50;;;;;;5085016;28;19920;-62
2021/12/12 08:20:26;;;;;;;;;;;19.70;39.50;;;;;;5083774;28;19912;-62
2021/12/12 08:22:53;;;;;;;;;;;19.70;39.50;;;;;;5090677;28;21285;-62
2021/12/12 08:25:19;;;;;;;;;;;19.70;39.50;;;;;;5082997;28;19999;-62
2021/12/12 08:27:45;;;;;;;;;;;19.70;39.50;;;;;;5092451;28;19943;-62
2021/12/12 08:30:11;;;;;;;;;;;19.70;39.50;;;;;;5090858;28;20427;-62
2021/12/12 08:32:37;;;;;;;;;;;19.70;39.50;;;;;;5070469;28;19959;-62
2021/12/12 08:35:03;;;;;;;;;;;19.70;39.40;;;;;;5076892;28;19953;-62
2021/12/12 08:37:31;;;;;;;;;;;19.70;39.40;;;;;;5079802;28;19952;-62
2021/12/12 08:39:56;;;;;;;;;;;19.70;39.40;;;;;;5074337;28;20399;-62
2021/12/12 08:42:26;;;;;;;;;;;19.70;39.50;;;;;;5088990;28;19938;-62
2021/12/12 08:44:53;;;;;;;;;;;19.70;39.50;;;;;;5092048;28;19912;-62
2021/12/12 08:47:19;;;;;;;;;;;19.70;39.40;;;;;;5090794;28;19908;-62
2021/12/12 08:49:44;;;;;;;;;;;19.70;39.50;;;;;;5079105;28;20016;-62
2021/12/12 08:52:14;;;;;;;;;;;19.70;39.50;;;;;;5088318;28;20354;-62
2021/12/12 08:54:40;;;;;;;;;;;19.70;39.50;;;;;;5090295;28;20361;-62
2021/12/12 08:57:09;;;;;;;;;;;19.70;39.40;;;;;;5088965;28;19912;-62
2021/12/12 08:59:35;;;;;;;;;;;19.70;39.40;;;;;;5090670;28;20270;-62
2021/12/12 09:02:03;;;;;;;;;;;19.70;39.40;;;;;;5091879;28;19912;-62
2021/12/12 09:04:30;;;;;;;;;;;19.70;39.40;;;;;;5097243;28;20390;-62
2021/12/12 09:07:01;;;;;;;;;;;19.70;39.40;;;;;;5091727;28;19908;-62
2021/12/12 09:09:27;;;;;;;;;;;19.80;39.40;;;;;;5087357;28;20312;-62
2021/12/12 09:12:14;;;;;;;;;;;19.80;39.30;;;;;;5080376;28;19916;-62
2021/12/12 09:14:42;;;;;;;;;;;19.70;39.20;;;;;;5097966;28;20281;-62
2021/12/12 09:17:09;;;;;;;;;;;19.80;39.30;;;;;;5085562;28;19916;-62
2021/12/12 09:19:37;;;;;;;;;;;19.80;39.30;;;;;;5072582;28;19921;-62
2021/12/12 09:22:06;;;;;;;;;;;19.80;39.30;;;;;;5090296;28;19911;-62
2021/12/12 09:24:42;;;;;;;;;;;19.80;39.30;;;;;;5089623;28;20054;-62
2021/12/12 09:27:08;;;;;;;;;;;19.80;39.30;;;;;;5093120;28;19915;-62
2021/12/12 09:29:40;;;;;;;;;;;19.80;39.30;;;;;;5090135;28;20003;-62
2021/12/12 09:32:09;;;;;;;;;;;19.80;39.40;;;;;;5080882;28;20063;-62
2021/12/12 09:34:36;;;;;;;;;;;19.70;39.30;;;;;;5081482;28;19974;-62
2021/12/12 09:37:10;;;;;;;;;;;19.70;39.40;;;;;;5055182;28;19920;-62
2021/12/12 09:39:37;;;;;;;;;;;19.70;39.50;;;;;;5068909;28;20432;-62
2021/12/12 09:42:16;;;;;;;;;;;19.70;39.60;;;;;;5085416;28;20276;-63
2021/12/12 09:45:00;;;;;;;;;;;19.70;39.60;;;;;;5087019;28;20307;-62
2021/12/12 09:53:07;;;;;;;;;;;19.60;39.70;;;;;;5094547;28;20284;-63
2021/12/12 09:55:34;;;;;;;;;;;19.60;39.70;;;;;;5096636;28;19908;-62
2021/12/12 09:58:10;;;;;;;;;;;19.50;39.60;;;;;;5090522;28;20316;-62
2021/12/12 10:00:41;;;;;;;;;;;19.60;39.70;;;;;;5093554;28;19912;-62
2021/12/12 10:03:07;;;;;;;;;;;19.60;39.80;;;;;;5094971;28;19916;-62
2021/12/12 10:05:42;;;;;;;;;;;19.60;39.80;;;;;;5083431;28;19926;-62
2021/12/12 10:08:26;;;;;;;;;;;19.60;39.70;;;;;;5090194;28;19916;-62
2021/12/12 10:10:51;;;;;;;;;;;19.60;39.70;;;;;;5084426;28;19912;-62
2021/12/12 10:13:17;;;;;;;;;;;19.60;39.70;;;;;;5084772;28;19920;-62
2021/12/12 10:15:44;;;;;;;;;;;19.60;39.70;;;;;;5090122;28;19917;-62
2021/12/12 10:18:11;;;;;;;;;;;19.60;39.70;;;;;;5086240;28;19920;-63
2021/12/12 10:20:37;;;;;;;;;;;19.60;39.60;;;;;;5091613;28;20007;-62
2021/12/12 10:23:14;;;;;;;;;;;19.70;39.70;;;;;;5100286;28;20399;-62
2021/12/12 10:25:40;;;;;;;;;;;19.60;39.60;;;;;;5087860;28;19912;-62
2021/12/12 10:28:24;;;;;;;;;;;19.60;39.60;;;;;;5083109;28;19912;-62
2021/12/12 10:30:54;;;;;;;;;;;19.70;39.70;;;;;;5080020;28;20375;-63
2021/12/12 10:33:25;;;;;;;;;;;19.60;39.60;;;;;;5087769;28;19916;-63
2021/12/12 10:35:50;;;;;;;;;;;19.60;39.60;;;;;;5074882;28;19920;-63
2021/12/12 10:38:17;;;;;;;;;;;19.70;39.70;;;;;;5081583;28;19924;-63
2021/12/12 10:40:47;;;;;;;;;;;19.80;39.70;;;;;;5072980;28;19912;-64
2021/12/12 10:43:13;;;;;;;;;;;19.90;39.50;;;;;;5080350;28;19913;-63
2021/12/12 10:45:44;;;;;;;;;;;20.00;39.30;;;;;;5066044;28;19912;-64
2021/12/12 10:48:16;;;;;;;;;;;20.20;39.10;;;;;;5090689;28;20745;-63
2021/12/12 10:50:54;;;;;;;;;;;20.30;39.00;;;;;;5086513;28;19912;-63
2021/12/12 10:53:27;;;;;;;;;;;20.40;39.00;;;;;;5088452;28;20379;-63
2021/12/12 10:55:59;;;;;;;;;;;20.50;39.20;;;;;;5090182;28;19973;-64
2021/12/12 10:58:42;;;;;;;;;;;20.50;39.20;;;;;;5086074;28;19920;-65
2021/12/12 11:01:12;;;;;;;;;;;20.50;39.10;;;;;;5088815;28;20462;-63
2021/12/12 11:03:38;;;;;;;;;;;20.60;39.20;;;;;;5081481;28;19923;-63
2021/12/12 11:06:05;;;;;;;;;;;20.60;39.20;;;;;;5077422;28;19913;-64
2021/12/12 11:08:33;;;;;;;;;;;20.60;39.10;;;;;;5105299;28;19919;-64
2021/12/12 11:10:59;;;;;;;;;;;20.70;39.20;;;;;;5072869;28;19912;-64
2021/12/12 11:13:32;;;;;;;;;;;20.70;39.20;;;;;;5086914;28;19931;-64
2021/12/12 11:15:58;;;;;;;;;;;20.70;39.20;;;;;;5074661;28;20276;-64
2021/12/12 11:18:34;;;;;;;;;;;20.70;39.20;;;;;;5083734;28;19916;-64
2021/12/12 11:21:14;;;;;;;;;;;20.70;39.20;;;;;;5085578;28;20429;-63
2021/12/12 11:23:51;;;;;;;;;;;20.80;39.20;;;;;;5085840;28;19955;-64
2021/12/12 11:26:21;;;;;;;;;;;20.80;39.20;;;;;;5075864;28;19923;-63
2021/12/12 11:28:57;;;;;;;;;;;20.80;39.20;;;;;;5088645;28;20393;-63
2021/12/12 11:31:42;;;;;;;;;;;20.80;39.20;;;;;;5081459;28;19919;-64
2021/12/12 11:34:08;;;;;;;;;;;20.80;39.30;;;;;;5073319;28;19920;-64
2021/12/12 11:36:57;;;;;;;;;;;20.80;39.30;;;;;;5069476;28;19912;-64
2021/12/12 11:39:45;;;;;;;;;;;20.80;39.30;;;;;;5077754;28;19990;-64
2021/12/12 11:42:15;;;;;;;;;;;20.80;39.20;;;;;;5076400;28;19913;-63
2021/12/12 11:44:42;;;;;;;;;;;20.80;39.20;;;;;;5082233;28;20444;-64
2021/12/12 11:47:08;;;;;;;;;;;20.80;39.30;;;;;;5057934;28;19912;-63
2021/12/12 11:49:50;;;;;;;;;;;20.80;39.30;;;;;;5084139;28;19919;-63
2021/12/12 11:52:42;;;;;;;;;;;20.80;39.40;;;;;;5089192;28;19912;-64
2021/12/12 11:55:16;;;;;;;;;;;20.80;39.30;;;;;;5086340;28;20064;-63
2021/12/12 11:57:47;;;;;;;;;;;20.90;39.40;;;;;;5086920;28;19931;-63
2021/12/12 12:00:17;;;;;;;;;;;20.90;39.20;;;;;;5081340;28;19916;-64
2021/12/12 12:02:46;;;;;;;;;;;20.90;39.30;;;;;;5070134;28;19909;-64
2021/12/12 12:05:30;;;;;;;;;;;20.90;39.20;;;;;;5079318;28;20312;-63
2021/12/12 12:07:57;;;;;;;;;;;20.90;39.30;;;;;;5089876;28;19942;-63
2021/12/12 12:10:43;;;;;;;;;;;20.90;39.30;;;;;;5088082;28;20399;-63
2021/12/12 12:13:18;;;;;;;;;;;20.90;39.30;;;;;;5079002;28;19920;-63
2021/12/12 12:15:59;;;;;;;;;;;20.90;39.40;;;;;;5076116;28;20333;-63
2021/12/12 12:18:34;;;;;;;;;;;20.90;39.40;;;;;;5073280;28;20003;-64
2021/12/12 12:21:02;;;;;;;;;;;20.90;39.40;;;;;;5093061;28;20393;-64
2021/12/12 12:24:00;;;;;;;;;;;20.90;39.50;;;;;;5087921;28;19919;-64
2021/12/12 12:29:26;;;;;;;;;;;20.90;39.50;;;;;;5092745;28;20015;-64
2021/12/12 12:32:04;;;;;;;;;;;20.90;39.50;;;;;;5106969;28;19914;-63
2021/12/12 12:34:48;;;;;;;;;;;21.00;39.50;;;;;;5091272;28;19912;-63
2021/12/12 12:37:32;;;;;;;;;;;21.00;39.50;;;;;;5089040;28;19917;-63
2021/12/12 12:40:16;;;;;;;;;;;21.00;39.60;;;;;;5091651;28;19908;-64
2021/12/12 12:43:00;;;;;;;;;;;21.00;39.60;;;;;;5076733;28;19908;-63
2021/12/12 12:45:45;;;;;;;;;;;21.00;39.70;;;;;;5093730;28;20722;-64
2021/12/12 12:48:13;;;;;;;;;;;21.00;39.80;;;;;;5081345;28;19912;-63
2021/12/12 12:50:47;;;;;;;;;;;21.00;39.90;;;;;;5084859;28;20309;-63
2021/12/12 12:53:32;;;;;;;;;;;21.00;39.80;;;;;;5089469;28;19943;-64
2021/12/12 12:56:16;;;;;;;;;;;21.00;39.90;;;;;;5090190;28;20386;-63
2021/12/12 12:58:54;;;;;;;;;;;21.00;40.10;;;;;;5078630;28;19913;-63
2021/12/12 13:01:29;;;;;;;;;;;21.00;40.30;;;;;;5091346;28;19912;-64
2021/12/12 13:04:01;;;;;;;;;;;21.00;40.30;;;;;;5073311;28;20395;-64
2021/12/12 13:06:45;;;;;;;;;;;21.00;40.40;;;;;;5092103;28;19931;-63
2021/12/12 13:09:29;;;;;;;;;;;21.00;40.60;;;;;;5092108;28;20288;-64
2021/12/12 13:12:01;;;;;;;;;;;21.10;40.60;;;;;;5092075;28;19912;-64
2021/12/12 13:14:30;;;;;;;;;;;21.00;40.60;;;;;;5084893;28;19928;-63
2021/12/12 13:17:01;;;;;;;;;;;21.00;40.70;;;;;;5089123;28;19967;-64
2021/12/12 13:19:34;;;;;;;;;;;21.00;40.80;;;;;;5082687;28;19916;-63
2021/12/12 13:22:03;;;;;;;;;;;21.10;40.90;;;;;;5077225;28;19915;-63
2021/12/12 13:24:33;;;;;;;;;;;21.10;40.90;;;;;;5078135;28;19923;-63
2021/12/12 13:27:06;;;;;;;;;;;21.10;40.90;;;;;;5095770;28;19980;-63
2021/12/12 13:29:40;;;;;;;;;;;21.10;40.90;;;;;;5088909;28;19938;-64
2021/12/12 13:32:35;;;;;;;;;;;21.10;41.00;;;;;;5089434;28;19919;-63
2021/12/12 13:35:19;;;;;;;;;;;21.10;41.00;;;;;;5079455;28;19908;-63
2021/12/12 13:37:50;;;;;;;;;;;21.10;41.10;;;;;;5080693;28;20018;-63
2021/12/12 13:40:27;;;;;;;;;;;21.10;41.20;;;;;;5076950;28;19915;-63
2021/12/12 13:43:08;;;;;;;;;;;21.10;41.10;;;;;;5080052;28;19923;-63
2021/12/12 13:45:38;;;;;;;;;;;21.10;41.10;;;;;;5072373;28;19909;-63
2021/12/12 13:48:36;;;;;;;;;;;21.10;41.10;;;;;;5090402;28;19912;-63
2021/12/12 13:51:08;;;;;;;;;;;21.10;41.20;;;;;;5049477;28;20013;-63
2021/12/12 13:53:46;;;;;;;;;;;21.10;41.20;;;;;;5085304;28;19916;-63
2021/12/12 13:56:11;;;;;;;;;;;21.10;41.20;;;;;;5092146;28;19962;-63
2021/12/12 13:58:38;;;;;;;;;;;21.10;41.90;;;;;;5092707;28;19963;-63
2021/12/12 14:01:05;;;;;;;;;;;21.10;41.20;;;;;;5076617;28;19915;-63
2021/12/12 14:03:40;;;;;;;;;;;21.10;41.10;;;;;;5088476;28;19912;-63
2021/12/12 14:06:10;;;;;;;;;;;21.10;41.20;;;;;;5082784;28;19962;-64
2021/12/12 14:08:39;;;;;;;;;;;21.10;41.90;;;;;;5092120;28;19916;-64
2021/12/12 14:11:06;;;;;;;;;;;21.10;41.20;;;;;;5092921;28;20050;-63
2021/12/12 14:13:42;;;;;;;;;;;21.10;41.20;;;;;;5076277;28;19924;-63
2021/12/12 14:16:09;;;;;;;;;;;21.10;41.20;;;;;;5092785;28;19912;-63
2021/12/12 14:18:39;;;;;;;;;;;21.10;41.20;;;;;;5095919;28;19916;-63
2021/12/12 14:21:04;;;;;;;;;;;21.10;41.10;;;;;;5097152;28;19908;-64
2021/12/12 14:23:30;;;;;;;;;;;21.10;41.10;;;;;;5089453;28;19919;-63
2021/12/12 14:26:02;;;;;;;;;;;21.10;41.10;;;;;;5077686;28;19960;-63
2021/12/12 14:28:27;;;;;;;;;;;21.20;41.20;;;;;;5103227;28;20422;-63
2021/12/12 14:30:53;;;;;;;;;;;21.20;41.20;;;;;;5094878;28;19958;-63
2021/12/12 14:33:23;;;;;;;;;;;21.20;41.20;;;;;;5092554;28;19908;-63
2021/12/12 14:35:50;;;;;;;;;;;21.10;41.10;;;;;;5092565;28;19981;-63
2021/12/12 14:38:16;;;;;;;;;;;21.10;41.10;;;;;;5093265;28;20346;-63
2021/12/12 14:40:45;;;;;;;;;;;21.20;41.20;;;;;;5092565;28;19908;-63
2021/12/12 14:43:14;;;;;;;;;;;21.20;41.20;;;;;;5093717;28;19908;-63
2021/12/12 14:45:46;;;;;;;;;;;21.20;41.20;;;;;;5095676;28;20002;-63
2021/12/12 14:48:14;;;;;;;;;;;21.20;41.10;;;;;;5082601;28;19952;-63